Terminal Aerodrome Forecast
Issued by NWS

Home | Current Version | Previous Version | Text Only | Print | Product List | Glossary On
Versions: 1 2 3 4 5 6 7 8 9 10 11 12 13 14 15 16 17 18
000
FTPQ31 PGUM 232329
TAFGUM
TAF

TAF
PGRO 232329Z 2400/2424 05011KT P6SM VCSH FEW013 SCT100
     FM240800 07009KT P6SM VCSH FEW012 SCT050=

USA.gov is the U.S. government's official web portal to all federal, state and local government web resources and services.